sensor_id;sensor_type;location;lat;lon;timestamp;P1;durP1;ratioP1;P2;durP2;ratioP2
60502;SDS011;51448;51.660;5.824;2022-09-29T00:01:08;11.93;;;9.80;;
60502;SDS011;51448;51.660;5.824;2022-09-29T00:03:36;14.43;;;11.25;;
60502;SDS011;51448;51.660;5.824;2022-09-29T00:06:08;12.18;;;9.27;;
60502;SDS011;51448;51.660;5.824;2022-09-29T00:08:40;16.40;;;10.85;;
60502;SDS011;51448;51.660;5.824;2022-09-29T00:11:10;15.48;;;11.13;;
60502;SDS011;51448;51.660;5.824;2022-09-29T00:13:41;11.77;;;10.55;;
60502;SDS011;51448;51.660;5.824;2022-09-29T00:16:09;14.27;;;11.88;;
60502;SDS011;51448;51.660;5.824;2022-09-29T00:18:39;13.55;;;10.23;;
60502;SDS011;51448;51.660;5.824;2022-09-29T00:21:11;13.55;;;11.07;;
60502;SDS011;51448;51.660;5.824;2022-09-29T00:23:45;12.00;;;9.55;;
60502;SDS011;51448;51.660;5.824;2022-09-29T00:26:16;10.93;;;9.77;;
60502;SDS011;51448;51.660;5.824;2022-09-29T00:28:50;12.98;;;9.73;;
60502;SDS011;51448;51.660;5.824;2022-09-29T00:31:24;11.38;;;8.95;;
60502;SDS011;51448;51.660;5.824;2022-09-29T00:33:55;11.18;;;9.60;;
60502;SDS011;51448;51.660;5.824;2022-09-29T00:36:23;11.88;;;10.50;;
60502;SDS011;51448;51.660;5.824;2022-09-29T00:38:55;13.48;;;10.45;;
60502;SDS011;51448;51.660;5.824;2022-09-29T00:41:25;13.27;;;10.63;;
60502;SDS011;51448;51.660;5.824;2022-09-29T00:46:42;13.63;;;11.52;;
60502;SDS011;51448;51.660;5.824;2022-09-29T00:55:21;12.82;;;11.43;;
60502;SDS011;51448;51.660;5.824;2022-09-29T00:57:59;11.35;;;10.00;;
60502;SDS011;51448;51.660;5.824;2022-09-29T01:00:34;14.77;;;10.60;;
60502;SDS011;51448;51.660;5.824;2022-09-29T01:03:04;12.50;;;10.18;;
60502;SDS011;51448;51.660;5.824;2022-09-29T01:05:39;10.10;;;9.10;;
60502;SDS011;51448;51.660;5.824;2022-09-29T01:08:19;9.15;;;7.20;;
60502;SDS011;51448;51.660;5.824;2022-09-29T01:10:53;9.18;;;7.15;;
60502;SDS011;51448;51.660;5.824;2022-09-29T01:13:23;7.88;;;6.78;;
60502;SDS011;51448;51.660;5.824;2022-09-29T01:15:51;7.88;;;6.93;;
60502;SDS011;51448;51.660;5.824;2022-09-29T01:18:18;9.73;;;7.65;;
60502;SDS011;51448;51.660;5.824;2022-09-29T01:20:50;11.10;;;9.27;;
60502;SDS011;51448;51.660;5.824;2022-09-29T01:33:00;9.10;;;7.07;;
60502;SDS011;51448;51.660;5.824;2022-09-29T01:35:56;7.28;;;5.90;;
60502;SDS011;51448;51.660;5.824;2022-09-29T01:38:44;21.45;;;9.05;;
60502;SDS011;51448;51.660;5.824;2022-09-29T01:41:39;38.60;;;7.45;;
60502;SDS011;51448;51.660;5.824;2022-09-29T01:46:55;7.20;;;6.15;;
60502;SDS011;51448;51.660;5.824;2022-09-29T01:49:30;6.80;;;5.68;;
60502;SDS011;51448;51.660;5.824;2022-09-29T01:52:09;6.93;;;5.85;;
60502;SDS011;51448;51.660;5.824;2022-09-29T01:57:24;7.28;;;6.50;;
60502;SDS011;51448;51.660;5.824;2022-09-29T02:00:05;10.50;;;7.03;;
60502;SDS011;51448;51.660;5.824;2022-09-29T02:02:47;14.80;;;7.63;;
60502;SDS011;51448;51.660;5.824;2022-09-29T02:05:23;8.68;;;6.63;;
60502;SDS011;51448;51.660;5.824;2022-09-29T02:08:06;8.43;;;7.28;;
60502;SDS011;51448;51.660;5.824;2022-09-29T02:10:40;32.17;;;7.10;;
60502;SDS011;51448;51.660;5.824;2022-09-29T02:13:28;12.63;;;6.22;;
60502;SDS011;51448;51.660;5.824;2022-09-29T02:16:01;7.93;;;6.15;;
60502;SDS011;51448;51.660;5.824;2022-09-29T02:18:38;7.00;;;6.05;;
60502;SDS011;51448;51.660;5.824;2022-09-29T02:21:24;7.43;;;5.80;;
60502;SDS011;51448;51.660;5.824;2022-09-29T02:23:54;9.93;;;6.63;;
60502;SDS011;51448;51.660;5.824;2022-09-29T02:26:23;7.65;;;6.20;;
60502;SDS011;51448;51.660;5.824;2022-09-29T02:28:56;9.70;;;8.55;;
60502;SDS011;51448;51.660;5.824;2022-09-29T02:31:24;9.85;;;8.85;;
60502;SDS011;51448;51.660;5.824;2022-09-29T02:33:52;9.50;;;8.50;;
60502;SDS011;51448;51.660;5.824;2022-09-29T02:45:56;80.60;;;17.63;;
60502;SDS011;51448;51.660;5.824;2022-09-29T02:49:15;36.75;;;14.02;;
60502;SDS011;51448;51.660;5.824;2022-09-29T02:51:46;15.38;;;13.18;;
60502;SDS011;51448;51.660;5.824;2022-09-29T02:54:32;18.70;;;8.52;;
60502;SDS011;51448;51.660;5.824;2022-09-29T02:57:19;12.50;;;9.60;;
60502;SDS011;51448;51.660;5.824;2022-09-29T03:00:07;11.50;;;9.30;;
60502;SDS011;51448;51.660;5.824;2022-09-29T03:02:42;8.73;;;7.73;;
60502;SDS011;51448;51.660;5.824;2022-09-29T03:05:11;9.80;;;7.35;;
60502;SDS011;51448;51.660;5.824;2022-09-29T03:07:43;8.30;;;5.95;;
60502;SDS011;51448;51.660;5.824;2022-09-29T03:10:11;7.68;;;5.97;;
60502;SDS011;51448;51.660;5.824;2022-09-29T03:12:41;11.18;;;7.63;;
60502;SDS011;51448;51.660;5.824;2022-09-29T03:15:09;7.65;;;6.88;;
60502;SDS011;51448;51.660;5.824;2022-09-29T03:17:38;10.23;;;8.23;;
60502;SDS011;51448;51.660;5.824;2022-09-29T03:20:06;12.35;;;11.15;;
60502;SDS011;51448;51.660;5.824;2022-09-29T03:22:35;16.55;;;13.77;;
60502;SDS011;51448;51.660;5.824;2022-09-29T03:25:03;14.93;;;13.05;;
60502;SDS011;51448;51.660;5.824;2022-09-29T03:27:32;13.80;;;12.02;;
60502;SDS011;51448;51.660;5.824;2022-09-29T03:30:00;17.48;;;12.25;;
60502;SDS011;51448;51.660;5.824;2022-09-29T03:32:27;15.63;;;11.02;;
60502;SDS011;51448;51.660;5.824;2022-09-29T03:34:56;12.05;;;10.18;;
60502;SDS011;51448;51.660;5.824;2022-09-29T03:37:23;17.85;;;11.23;;
60502;SDS011;51448;51.660;5.824;2022-09-29T03:39:51;9.43;;;8.23;;
60502;SDS011;51448;51.660;5.824;2022-09-29T03:42:18;17.33;;;9.65;;
60502;SDS011;51448;51.660;5.824;2022-09-29T03:44:48;10.02;;;8.98;;
60502;SDS011;51448;51.660;5.824;2022-09-29T03:47:16;36.63;;;7.78;;
60502;SDS011;51448;51.660;5.824;2022-09-29T03:49:43;9.35;;;7.43;;
60502;SDS011;51448;51.660;5.824;2022-09-29T03:52:10;8.68;;;7.60;;
60502;SDS011;51448;51.660;5.824;2022-09-29T03:54:38;8.88;;;7.97;;
60502;SDS011;51448;51.660;5.824;2022-09-29T03:57:05;9.52;;;8.55;;
60502;SDS011;51448;51.660;5.824;2022-09-29T03:59:33;9.82;;;8.82;;
60502;SDS011;51448;51.660;5.824;2022-09-29T04:02:00;9.18;;;8.27;;
60502;SDS011;51448;51.660;5.824;2022-09-29T04:04:28;11.18;;;7.88;;
60502;SDS011;51448;51.660;5.824;2022-09-29T04:06:56;15.40;;;8.02;;
60502;SDS011;51448;51.660;5.824;2022-09-29T04:09:23;11.73;;;8.02;;
60502;SDS011;51448;51.660;5.824;2022-09-29T04:11:50;9.82;;;8.82;;
60502;SDS011;51448;51.660;5.824;2022-09-29T04:14:18;9.40;;;8.25;;
60502;SDS011;51448;51.660;5.824;2022-09-29T04:16:45;28.67;;;11.00;;
60502;SDS011;51448;51.660;5.824;2022-09-29T04:19:14;14.10;;;8.80;;
60502;SDS011;51448;51.660;5.824;2022-09-29T04:21:41;44.45;;;9.55;;
60502;SDS011;51448;51.660;5.824;2022-09-29T04:24:08;10.60;;;9.15;;
60502;SDS011;51448;51.660;5.824;2022-09-29T04:26:36;10.13;;;9.13;;
60502;SDS011;51448;51.660;5.824;2022-09-29T04:29:03;10.57;;;9.30;;
60502;SDS011;51448;51.660;5.824;2022-09-29T04:31:31;9.07;;;8.18;;
60502;SDS011;51448;51.660;5.824;2022-09-29T04:33:58;10.45;;;9.35;;
60502;SDS011;51448;51.660;5.824;2022-09-29T04:36:26;13.13;;;10.02;;
60502;SDS011;51448;51.660;5.824;2022-09-29T04:38:53;11.27;;;10.18;;
60502;SDS011;51448;51.660;5.824;2022-09-29T04:41:21;10.68;;;9.57;;
60502;SDS011;51448;51.660;5.824;2022-09-29T04:43:48;11.30;;;10.15;;
60502;SDS011;51448;51.660;5.824;2022-09-29T04:46:16;19.05;;;8.95;;
60502;SDS011;51448;51.660;5.824;2022-09-29T04:48:43;16.77;;;9.32;;
60502;SDS011;51448;51.660;5.824;2022-09-29T04:51:10;9.88;;;7.93;;
60502;SDS011;51448;51.660;5.824;2022-09-29T04:53:38;10.20;;;9.20;;
60502;SDS011;51448;51.660;5.824;2022-09-29T04:56:06;17.10;;;10.75;;
60502;SDS011;51448;51.660;5.824;2022-09-29T04:58:35;84.70;;;10.93;;
60502;SDS011;51448;51.660;5.824;2022-09-29T05:01:04;10.00;;;9.00;;
60502;SDS011;51448;51.660;5.824;2022-09-29T05:03:34;10.23;;;9.23;;
60502;SDS011;51448;51.660;5.824;2022-09-29T05:06:08;10.77;;;8.73;;
60502;SDS011;51448;51.660;5.824;2022-09-29T05:08:36;13.95;;;10.00;;
60502;SDS011;51448;51.660;5.824;2022-09-29T05:11:04;9.93;;;8.93;;
60502;SDS011;51448;51.660;5.824;2022-09-29T05:13:34;10.95;;;9.52;;
60502;SDS011;51448;51.660;5.824;2022-09-29T05:16:03;12.02;;;10.43;;
60502;SDS011;51448;51.660;5.824;2022-09-29T05:18:31;15.60;;;14.05;;
60502;SDS011;51448;51.660;5.824;2022-09-29T05:21:04;16.55;;;14.88;;
60502;SDS011;51448;51.660;5.824;2022-09-29T05:23:53;17.98;;;15.30;;
60502;SDS011;51448;51.660;5.824;2022-09-29T05:26:21;28.52;;;11.93;;
60502;SDS011;51448;51.660;5.824;2022-09-29T05:28:49;52.60;;;10.07;;
60502;SDS011;51448;51.660;5.824;2022-09-29T05:31:16;14.65;;;9.82;;
60502;SDS011;51448;51.660;5.824;2022-09-29T05:33:45;9.95;;;8.95;;
60502;SDS011;51448;51.660;5.824;2022-09-29T05:36:12;9.80;;;8.35;;
60502;SDS011;51448;51.660;5.824;2022-09-29T05:38:42;18.33;;;12.18;;
60502;SDS011;51448;51.660;5.824;2022-09-29T05:41:10;13.98;;;11.77;;
60502;SDS011;51448;51.660;5.824;2022-09-29T05:43:39;13.35;;;11.48;;
60502;SDS011;51448;51.660;5.824;2022-09-29T05:46:08;15.35;;;13.75;;
60502;SDS011;51448;51.660;5.824;2022-09-29T05:48:38;16.48;;;14.63;;
60502;SDS011;51448;51.660;5.824;2022-09-29T05:51:07;15.10;;;13.10;;
60502;SDS011;51448;51.660;5.824;2022-09-29T05:53:40;14.65;;;13.23;;
60502;SDS011;51448;51.660;5.824;2022-09-29T05:56:12;21.25;;;12.13;;
60502;SDS011;51448;51.660;5.824;2022-09-29T05:58:45;12.90;;;11.02;;
60502;SDS011;51448;51.660;5.824;2022-09-29T06:01:15;14.98;;;13.40;;
60502;SDS011;51448;51.660;5.824;2022-09-29T06:03:55;14.57;;;13.18;;
60502;SDS011;51448;51.660;5.824;2022-09-29T06:06:24;14.80;;;13.30;;
60502;SDS011;51448;51.660;5.824;2022-09-29T06:08:54;55.00;;;14.90;;
60502;SDS011;51448;51.660;5.824;2022-09-29T06:11:25;14.82;;;12.68;;
60502;SDS011;51448;51.660;5.824;2022-09-29T06:13:57;70.13;;;17.05;;
60502;SDS011;51448;51.660;5.824;2022-09-29T06:16:26;75.63;;;15.85;;
60502;SDS011;51448;51.660;5.824;2022-09-29T06:18:57;14.32;;;13.02;;
60502;SDS011;51448;51.660;5.824;2022-09-29T06:21:27;16.27;;;14.65;;
60502;SDS011;51448;51.660;5.824;2022-09-29T06:23:56;14.52;;;13.13;;
60502;SDS011;51448;51.660;5.824;2022-09-29T06:26:25;14.38;;;12.90;;
60502;SDS011;51448;51.660;5.824;2022-09-29T06:28:56;15.63;;;14.10;;
60502;SDS011;51448;51.660;5.824;2022-09-29T06:31:26;17.00;;;15.30;;
60502;SDS011;51448;51.660;5.824;2022-09-29T06:33:56;18.73;;;16.83;;
60502;SDS011;51448;51.660;5.824;2022-09-29T06:36:41;22.45;;;20.15;;
60502;SDS011;51448;51.660;5.824;2022-09-29T06:39:29;20.27;;;18.30;;
60502;SDS011;51448;51.660;5.824;2022-09-29T06:41:57;20.40;;;18.42;;
60502;SDS011;51448;51.660;5.824;2022-09-29T06:44:25;21.65;;;19.45;;
60502;SDS011;51448;51.660;5.824;2022-09-29T06:46:56;24.73;;;22.30;;
60502;SDS011;51448;51.660;5.824;2022-09-29T06:49:24;26.35;;;23.67;;
60502;SDS011;51448;51.660;5.824;2022-09-29T06:51:51;26.58;;;23.98;;
60502;SDS011;51448;51.660;5.824;2022-09-29T06:54:20;25.35;;;22.83;;
60502;SDS011;51448;51.660;5.824;2022-09-29T06:56:52;28.00;;;25.33;;
60502;SDS011;51448;51.660;5.824;2022-09-29T06:59:21;26.75;;;24.15;;
60502;SDS011;51448;51.660;5.824;2022-09-29T07:01:49;25.90;;;23.35;;
60502;SDS011;51448;51.660;5.824;2022-09-29T07:04:18;28.48;;;25.58;;
60502;SDS011;51448;51.660;5.824;2022-09-29T07:06:48;26.17;;;23.67;;
60502;SDS011;51448;51.660;5.824;2022-09-29T07:09:16;26.52;;;22.85;;
60502;SDS011;51448;51.660;5.824;2022-09-29T07:11:46;23.38;;;20.98;;
60502;SDS011;51448;51.660;5.824;2022-09-29T07:14:17;22.75;;;20.55;;
60502;SDS011;51448;51.660;5.824;2022-09-29T07:16:54;23.08;;;20.67;;
60502;SDS011;51448;51.660;5.824;2022-09-29T07:19:22;23.50;;;21.20;;
60502;SDS011;51448;51.660;5.824;2022-09-29T07:21:49;24.55;;;22.15;;
60502;SDS011;51448;51.660;5.824;2022-09-29T07:24:17;24.85;;;22.25;;
60502;SDS011;51448;51.660;5.824;2022-09-29T07:26:45;24.25;;;21.55;;
60502;SDS011;51448;51.660;5.824;2022-09-29T07:29:12;23.55;;;21.10;;
60502;SDS011;51448;51.660;5.824;2022-09-29T07:31:44;23.42;;;21.10;;
60502;SDS011;51448;51.660;5.824;2022-09-29T07:34:18;26.10;;;21.83;;
60502;SDS011;51448;51.660;5.824;2022-09-29T07:36:47;24.00;;;21.08;;
60502;SDS011;51448;51.660;5.824;2022-09-29T07:39:15;21.35;;;19.10;;
60502;SDS011;51448;51.660;5.824;2022-09-29T07:41:45;22.38;;;20.08;;
60502;SDS011;51448;51.660;5.824;2022-09-29T07:44:13;26.77;;;23.25;;
60502;SDS011;51448;51.660;5.824;2022-09-29T07:46:41;22.15;;;19.25;;
60502;SDS011;51448;51.660;5.824;2022-09-29T07:49:09;23.58;;;21.17;;
60502;SDS011;51448;51.660;5.824;2022-09-29T07:51:36;22.48;;;20.17;;
60502;SDS011;51448;51.660;5.824;2022-09-29T07:54:03;22.52;;;20.27;;
60502;SDS011;51448;51.660;5.824;2022-09-29T07:56:31;24.33;;;21.15;;
60502;SDS011;51448;51.660;5.824;2022-09-29T07:59:00;22.88;;;20.48;;
60502;SDS011;51448;51.660;5.824;2022-09-29T08:01:29;21.65;;;19.35;;
60502;SDS011;51448;51.660;5.824;2022-09-29T08:03:57;23.05;;;19.67;;
60502;SDS011;51448;51.660;5.824;2022-09-29T08:06:25;21.30;;;19.10;;
60502;SDS011;51448;51.660;5.824;2022-09-29T08:08:53;22.02;;;19.42;;
60502;SDS011;51448;51.660;5.824;2022-09-29T08:11:31;24.48;;;20.17;;
60502;SDS011;51448;51.660;5.824;2022-09-29T08:14:03;22.23;;;19.85;;
60502;SDS011;51448;51.660;5.824;2022-09-29T08:16:32;20.27;;;18.17;;
60502;SDS011;51448;51.660;5.824;2022-09-29T08:19:00;22.10;;;19.17;;
60502;SDS011;51448;51.660;5.824;2022-09-29T08:21:30;22.52;;;19.23;;
60502;SDS011;51448;51.660;5.824;2022-09-29T08:24:03;24.77;;;20.73;;
60502;SDS011;51448;51.660;5.824;2022-09-29T08:26:33;21.63;;;19.38;;
60502;SDS011;51448;51.660;5.824;2022-09-29T08:29:11;21.38;;;18.70;;
60502;SDS011;51448;51.660;5.824;2022-09-29T08:31:43;22.05;;;19.70;;
60502;SDS011;51448;51.660;5.824;2022-09-29T08:34:12;23.38;;;19.77;;
60502;SDS011;51448;51.660;5.824;2022-09-29T08:36:40;22.23;;;19.70;;
60502;SDS011;51448;51.660;5.824;2022-09-29T08:39:08;25.40;;;19.77;;
60502;SDS011;51448;51.660;5.824;2022-09-29T08:41:52;22.58;;;19.73;;
60502;SDS011;51448;51.660;5.824;2022-09-29T08:47:17;21.63;;;19.25;;
60502;SDS011;51448;51.660;5.824;2022-09-29T08:50:13;21.20;;;18.45;;
60502;SDS011;51448;51.660;5.824;2022-09-29T08:52:53;24.25;;;20.35;;
60502;SDS011;51448;51.660;5.824;2022-09-29T08:55:49;23.08;;;18.60;;
60502;SDS011;51448;51.660;5.824;2022-09-29T08:58:23;23.58;;;18.05;;
60502;SDS011;51448;51.660;5.824;2022-09-29T09:09:33;18.92;;;16.33;;
60502;SDS011;51448;51.660;5.824;2022-09-29T09:15:16;18.35;;;15.85;;
60502;SDS011;51448;51.660;5.824;2022-09-29T09:21:09;20.20;;;16.55;;
60502;SDS011;51448;51.660;5.824;2022-09-29T09:24:35;18.20;;;15.90;;
60502;SDS011;51448;51.660;5.824;2022-09-29T09:27:30;16.83;;;15.05;;
60502;SDS011;51448;51.660;5.824;2022-09-29T09:30:16;19.02;;;15.02;;
60502;SDS011;51448;51.660;5.824;2022-09-29T09:32:48;17.08;;;15.27;;
60502;SDS011;51448;51.660;5.824;2022-09-29T09:35:40;15.73;;;12.93;;
60502;SDS011;51448;51.660;5.824;2022-09-29T09:38:26;16.38;;;13.45;;
60502;SDS011;51448;51.660;5.824;2022-09-29T09:41:06;13.45;;;12.05;;
60502;SDS011;51448;51.660;5.824;2022-09-29T09:43:40;14.88;;;11.18;;
60502;SDS011;51448;51.660;5.824;2022-09-29T09:46:17;12.60;;;10.73;;
60502;SDS011;51448;51.660;5.824;2022-09-29T09:49:06;12.63;;;10.45;;
60502;SDS011;51448;51.660;5.824;2022-09-29T09:51:48;13.88;;;11.65;;
60502;SDS011;51448;51.660;5.824;2022-09-29T09:54:33;15.52;;;11.00;;
60502;SDS011;51448;51.660;5.824;2022-09-29T10:00:13;12.77;;;10.23;;
60502;SDS011;51448;51.660;5.824;2022-09-29T10:02:46;12.70;;;10.45;;
60502;SDS011;51448;51.660;5.824;2022-09-29T10:05:22;12.90;;;10.57;;
60502;SDS011;51448;51.660;5.824;2022-09-29T10:07:57;13.75;;;12.15;;
60502;SDS011;51448;51.660;5.824;2022-09-29T10:10:25;13.27;;;10.88;;
60502;SDS011;51448;51.660;5.824;2022-09-29T10:13:07;11.05;;;9.70;;
60502;SDS011;51448;51.660;5.824;2022-09-29T10:15:50;11.75;;;9.43;;
60502;SDS011;51448;51.660;5.824;2022-09-29T10:18:27;13.13;;;10.23;;
60502;SDS011;51448;51.660;5.824;2022-09-29T10:21:03;12.02;;;10.63;;
60502;SDS011;51448;51.660;5.824;2022-09-29T10:26:21;14.77;;;11.05;;
60502;SDS011;51448;51.660;5.824;2022-09-29T10:28:56;14.73;;;11.35;;
60502;SDS011;51448;51.660;5.824;2022-09-29T10:31:57;12.48;;;10.68;;
60502;SDS011;51448;51.660;5.824;2022-09-29T10:34:31;12.57;;;11.07;;
60502;SDS011;51448;51.660;5.824;2022-09-29T10:37:04;13.35;;;9.77;;
60502;SDS011;51448;51.660;5.824;2022-09-29T10:39:49;12.50;;;9.13;;
60502;SDS011;51448;51.660;5.824;2022-09-29T10:42:36;11.32;;;10.07;;
60502;SDS011;51448;51.660;5.824;2022-09-29T10:45:10;13.48;;;11.10;;
60502;SDS011;51448;51.660;5.824;2022-09-29T10:47:45;11.70;;;9.90;;
60502;SDS011;51448;51.660;5.824;2022-09-29T10:50:26;10.68;;;8.63;;
60502;SDS011;51448;51.660;5.824;2022-09-29T10:53:03;12.05;;;9.63;;
60502;SDS011;51448;51.660;5.824;2022-09-29T10:55:51;13.05;;;9.38;;
60502;SDS011;51448;51.660;5.824;2022-09-29T10:58:30;10.43;;;8.20;;
60502;SDS011;51448;51.660;5.824;2022-09-29T11:01:20;10.13;;;7.70;;
60502;SDS011;51448;51.660;5.824;2022-09-29T11:03:49;10.20;;;7.18;;
60502;SDS011;51448;51.660;5.824;2022-09-29T11:06:31;9.38;;;7.60;;
60502;SDS011;51448;51.660;5.824;2022-09-29T11:19:57;9.18;;;6.10;;
60502;SDS011;51448;51.660;5.824;2022-09-29T11:31:03;9.93;;;6.68;;
60502;SDS011;51448;51.660;5.824;2022-09-29T11:36:31;9.13;;;6.13;;
60502;SDS011;51448;51.660;5.824;2022-09-29T11:39:14;8.07;;;5.63;;
60502;SDS011;51448;51.660;5.824;2022-09-29T11:42:21;8.02;;;5.53;;
60502;SDS011;51448;51.660;5.824;2022-09-29T11:45:10;9.33;;;6.17;;
60502;SDS011;51448;51.660;5.824;2022-09-29T11:48:08;9.52;;;6.72;;
60502;SDS011;51448;51.660;5.824;2022-09-29T11:51:22;9.60;;;6.03;;
60502;SDS011;51448;51.660;5.824;2022-09-29T11:59:46;7.45;;;4.85;;
60502;SDS011;51448;51.660;5.824;2022-09-29T12:11:35;9.30;;;6.13;;
60502;SDS011;51448;51.660;5.824;2022-09-29T12:17:43;8.05;;;6.15;;
60502;SDS011;51448;51.660;5.824;2022-09-29T12:20:23;8.68;;;6.15;;
60502;SDS011;51448;51.660;5.824;2022-09-29T12:22:57;11.55;;;6.00;;
60502;SDS011;51448;51.660;5.824;2022-09-29T12:25:31;8.32;;;4.80;;
60502;SDS011;51448;51.660;5.824;2022-09-29T12:28:12;7.50;;;5.05;;
60502;SDS011;51448;51.660;5.824;2022-09-29T12:30:47;7.10;;;5.00;;
60502;SDS011;51448;51.660;5.824;2022-09-29T12:33:33;7.35;;;4.90;;
60502;SDS011;51448;51.660;5.824;2022-09-29T12:36:24;7.65;;;4.90;;
60502;SDS011;51448;51.660;5.824;2022-09-29T12:42:28;8.23;;;6.25;;
60502;SDS011;51448;51.660;5.824;2022-09-29T12:45:30;8.55;;;5.95;;
60502;SDS011;51448;51.660;5.824;2022-09-29T12:51:32;8.18;;;5.60;;
60502;SDS011;51448;51.660;5.824;2022-09-29T12:57:14;9.20;;;5.22;;
60502;SDS011;51448;51.660;5.824;2022-09-29T13:05:54;7.82;;;5.30;;
60502;SDS011;51448;51.660;5.824;2022-09-29T13:08:33;8.57;;;5.65;;
60502;SDS011;51448;51.660;5.824;2022-09-29T13:20:57;9.57;;;5.50;;
60502;SDS011;51448;51.660;5.824;2022-09-29T13:24:46;5.28;;;3.10;;
60502;SDS011;51448;51.660;5.824;2022-09-29T13:27:22;6.65;;;2.50;;
60502;SDS011;51448;51.660;5.824;2022-09-29T13:35:28;3.53;;;1.70;;
60502;SDS011;51448;51.660;5.824;2022-09-29T13:38:21;4.60;;;1.95;;
60502;SDS011;51448;51.660;5.824;2022-09-29T13:49:10;4.88;;;1.95;;
60502;SDS011;51448;51.660;5.824;2022-09-29T13:52:28;4.60;;;1.90;;
60502;SDS011;51448;51.660;5.824;2022-09-29T13:55:06;6.60;;;2.83;;
60502;SDS011;51448;51.660;5.824;2022-09-29T13:58:24;4.22;;;2.05;;
60502;SDS011;51448;51.660;5.824;2022-09-29T14:01:02;6.10;;;2.20;;
60502;SDS011;51448;51.660;5.824;2022-09-29T14:03:34;3.70;;;1.60;;
60502;SDS011;51448;51.660;5.824;2022-09-29T14:06:21;3.92;;;1.77;;
60502;SDS011;51448;51.660;5.824;2022-09-29T14:09:14;4.40;;;2.08;;
60502;SDS011;51448;51.660;5.824;2022-09-29T14:11:50;5.20;;;2.30;;
60502;SDS011;51448;51.660;5.824;2022-09-29T14:17:18;4.88;;;1.60;;
60502;SDS011;51448;51.660;5.824;2022-09-29T14:22:54;4.73;;;1.80;;
60502;SDS011;51448;51.660;5.824;2022-09-29T14:28:18;6.07;;;3.88;;
60502;SDS011;51448;51.660;5.824;2022-09-29T14:30:51;5.45;;;3.63;;
60502;SDS011;51448;51.660;5.824;2022-09-29T14:33:24;6.55;;;3.55;;
60502;SDS011;51448;51.660;5.824;2022-09-29T14:36:06;6.00;;;3.22;;
60502;SDS011;51448;51.660;5.824;2022-09-29T14:38:42;4.55;;;2.83;;
60502;SDS011;51448;51.660;5.824;2022-09-29T14:41:38;5.90;;;2.67;;
60502;SDS011;51448;51.660;5.824;2022-09-29T14:44:15;6.30;;;2.53;;
60502;SDS011;51448;51.660;5.824;2022-09-29T14:50:37;4.85;;;2.60;;
60502;SDS011;51448;51.660;5.824;2022-09-29T14:57:13;4.80;;;2.80;;
60502;SDS011;51448;51.660;5.824;2022-09-29T15:00:04;5.10;;;2.75;;
60502;SDS011;51448;51.660;5.824;2022-09-29T15:02:47;6.00;;;3.00;;
60502;SDS011;51448;51.660;5.824;2022-09-29T15:05:27;6.22;;;3.42;;
60502;SDS011;51448;51.660;5.824;2022-09-29T15:08:00;5.00;;;2.85;;
60502;SDS011;51448;51.660;5.824;2022-09-29T15:10:39;7.30;;;3.08;;
60502;SDS011;51448;51.660;5.824;2022-09-29T15:13:41;5.43;;;3.00;;
60502;SDS011;51448;51.660;5.824;2022-09-29T15:16:04;6.03;;;2.88;;
60502;SDS011;51448;51.660;5.824;2022-09-29T15:19:04;6.22;;;3.30;;
60502;SDS011;51448;51.660;5.824;2022-09-29T15:30:59;6.05;;;3.40;;
60502;SDS011;51448;51.660;5.824;2022-09-29T15:33:34;7.57;;;3.85;;
60502;SDS011;51448;51.660;5.824;2022-09-29T15:36:12;6.25;;;4.20;;
60502;SDS011;51448;51.660;5.824;2022-09-29T15:38:57;6.10;;;4.07;;
60502;SDS011;51448;51.660;5.824;2022-09-29T15:41:32;6.93;;;4.18;;
60502;SDS011;51448;51.660;5.824;2022-09-29T15:44:11;8.73;;;4.32;;
60502;SDS011;51448;51.660;5.824;2022-09-29T15:46:51;6.40;;;4.45;;
60502;SDS011;51448;51.660;5.824;2022-09-29T15:49:24;7.38;;;4.40;;
60502;SDS011;51448;51.660;5.824;2022-09-29T15:52:03;7.47;;;4.18;;
60502;SDS011;51448;51.660;5.824;2022-09-29T15:54:41;9.35;;;4.30;;
60502;SDS011;51448;51.660;5.824;2022-09-29T15:57:30;9.05;;;4.35;;
60502;SDS011;51448;51.660;5.824;2022-09-29T16:03:00;7.13;;;4.47;;
60502;SDS011;51448;51.660;5.824;2022-09-29T16:05:44;7.53;;;4.28;;
60502;SDS011;51448;51.660;5.824;2022-09-29T16:08:36;8.13;;;4.50;;
60502;SDS011;51448;51.660;5.824;2022-09-29T16:11:17;7.80;;;4.68;;
60502;SDS011;51448;51.660;5.824;2022-09-29T16:13:52;7.60;;;4.32;;
60502;SDS011;51448;51.660;5.824;2022-09-29T16:16:31;8.35;;;4.07;;
60502;SDS011;51448;51.660;5.824;2022-09-29T16:19:06;8.60;;;4.13;;
60502;SDS011;51448;51.660;5.824;2022-09-29T16:21:44;8.70;;;4.30;;
60502;SDS011;51448;51.660;5.824;2022-09-29T16:24:19;8.48;;;4.43;;
60502;SDS011;51448;51.660;5.824;2022-09-29T16:26:49;7.45;;;4.57;;
60502;SDS011;51448;51.660;5.824;2022-09-29T16:40:53;7.82;;;4.97;;
60502;SDS011;51448;51.660;5.824;2022-09-29T16:43:23;9.57;;;5.18;;
60502;SDS011;51448;51.660;5.824;2022-09-29T16:45:59;8.45;;;6.13;;
60502;SDS011;51448;51.660;5.824;2022-09-29T16:48:29;10.50;;;5.55;;
60502;SDS011;51448;51.660;5.824;2022-09-29T16:51:06;8.45;;;5.65;;
60502;SDS011;51448;51.660;5.824;2022-09-29T16:54:08;9.20;;;4.97;;
60502;SDS011;51448;51.660;5.824;2022-09-29T16:56:46;8.60;;;5.70;;
60502;SDS011;51448;51.660;5.824;2022-09-29T16:59:16;9.27;;;5.47;;
60502;SDS011;51448;51.660;5.824;2022-09-29T17:01:44;8.27;;;5.95;;
60502;SDS011;51448;51.660;5.824;2022-09-29T17:04:13;10.07;;;6.22;;
60502;SDS011;51448;51.660;5.824;2022-09-29T17:06:44;8.93;;;6.22;;
60502;SDS011;51448;51.660;5.824;2022-09-29T17:09:17;10.77;;;6.40;;
60502;SDS011;51448;51.660;5.824;2022-09-29T17:11:49;8.95;;;6.07;;
60502;SDS011;51448;51.660;5.824;2022-09-29T17:14:17;10.63;;;5.95;;
60502;SDS011;51448;51.660;5.824;2022-09-29T17:16:44;9.75;;;6.38;;
60502;SDS011;51448;51.660;5.824;2022-09-29T17:19:12;10.77;;;6.13;;
60502;SDS011;51448;51.660;5.824;2022-09-29T17:21:39;11.68;;;6.88;;
60502;SDS011;51448;51.660;5.824;2022-09-29T17:24:07;9.88;;;5.68;;
60502;SDS011;51448;51.660;5.824;2022-09-29T17:26:35;10.50;;;6.20;;
60502;SDS011;51448;51.660;5.824;2022-09-29T17:31:54;14.77;;;7.20;;
60502;SDS011;51448;51.660;5.824;2022-09-29T17:34:22;16.17;;;8.13;;
60502;SDS011;51448;51.660;5.824;2022-09-29T17:37:01;15.35;;;8.32;;
60502;SDS011;51448;51.660;5.824;2022-09-29T17:39:28;14.85;;;8.00;;
60502;SDS011;51448;51.660;5.824;2022-09-29T17:41:56;10.68;;;7.00;;
60502;SDS011;51448;51.660;5.824;2022-09-29T17:44:25;11.07;;;7.53;;
60502;SDS011;51448;51.660;5.824;2022-09-29T17:46:54;10.35;;;7.00;;
60502;SDS011;51448;51.660;5.824;2022-09-29T17:49:42;11.70;;;7.07;;
60502;SDS011;51448;51.660;5.824;2022-09-29T17:52:10;8.65;;;7.07;;
60502;SDS011;51448;51.660;5.824;2022-09-29T17:54:41;13.27;;;7.40;;
60502;SDS011;51448;51.660;5.824;2022-09-29T17:57:15;9.57;;;6.35;;
60502;SDS011;51448;51.660;5.824;2022-09-29T17:59:51;7.78;;;6.25;;
60502;SDS011;51448;51.660;5.824;2022-09-29T18:02:19;11.18;;;7.10;;
60502;SDS011;51448;51.660;5.824;2022-09-29T18:04:47;9.45;;;7.63;;
60502;SDS011;51448;51.660;5.824;2022-09-29T18:07:15;12.50;;;7.68;;
60502;SDS011;51448;51.660;5.824;2022-09-29T18:09:42;11.35;;;9.00;;
60502;SDS011;51448;51.660;5.824;2022-09-29T18:12:13;13.77;;;9.55;;
60502;SDS011;51448;51.660;5.824;2022-09-29T18:14:40;11.27;;;8.35;;
60502;SDS011;51448;51.660;5.824;2022-09-29T18:17:08;10.65;;;8.10;;
60502;SDS011;51448;51.660;5.824;2022-09-29T18:19:35;10.85;;;7.93;;